Melbourne Harbour Control, Victoria

7:59 AM AEST on May 28, 2015 (GMT +1000)
Port Melbourne | | Change Station
CLOSE
Current Station
Personal Weather Station
Location: Port Melbourne, VICTORIA
Elevation: 13 ft
Nearby Weather Stations

Elev 13 ft 37.84 °S, 144.94 °E | Updated 9 seconds ago

Clear
Clear
56.8 °F
Feels Like 56.8 °F
N
4.3
Wind Variable Wind from NNE
Gusts 4.9 mph

Today
High -- | Low -- °F
--% Chance of Precip.
Yesterday
High -- | Low -- °F
Precip. -- in
7:23 AM 5:11 PM
Waxing Gibbous, 70% visible
Pressure 30.04 in
Visibility -9999.0 miles
Clouds
Dew Point 50 °F
Humidity 79%
Rainfall 0.00 in
Snow Depth Not available.
UV 1.0 out of 12
Pollen Not available.
Air Quality Not available.
Flu Activity Not available.
METAR YMML 272130Z 36020KT CAVOK 12/10 Q1017 RMK 6AC099 FM2130 MOD/SEV TURB BLW 5000FT

More Conditions Fewer Conditions

Pressure 30.04 in
Visibility -9999.0 miles
Clouds
Dew Point 50 °F
Humidity 79%
Rainfall 0.00 in
Snow Depth Not available.
UV 1.0 out of 12
Pollen Not available.
Air Quality Not available.
Flu Activity Not available.
METAR YMML 272130Z 36020KT CAVOK 12/10 Q1017 RMK 6AC099 FM2130 MOD/SEV TURB BLW 5000FT

More Conditions Fewer Conditions

10-Day Weather Forecast

Almanac

Astronomy

May. 28, 2015 Rise Set
Actual Time
Civil Twilight
Nautical Twilight
Astronomical Twilight
Moon
Length of Visible Light
Length of Day
Tomorrow will be .
, % of the Moon is Illuminated

Today's Extremes

Country Highs Country Lows

Community

WunderPhotos

Upload Photos

1,824,805 photos uploaded!

WunderBlogs® & News

Nearby

Air Quality

  Air Quality AQ Index Pollutant
Not available.

Snow Depth

Station Depth Elevation

Earthquake Activity

City Distance Mag. Time & Date
Minimum magnitude displayed is 2.5.

Coastal Water Temperatures

Place Temperature

Stations

Nearby Weather Stations

Station Location Temp. Windchill Dew Point Humidity Wind Precip. Elev Updated Type